createdAt,value
2022-09-26T15:42:09.379Z,13.80
2022-09-26T15:44:52.467Z,13.80
2022-09-26T15:47:30.224Z,13.70
2022-09-26T15:50:17.538Z,13.70
2022-09-26T15:52:56.118Z,13.70
2022-09-26T15:55:50.978Z,13.70
2022-09-26T15:58:41.497Z,13.60
2022-09-26T16:01:09.187Z,13.40
2022-09-26T16:03:44.717Z,14.00
2022-09-26T16:06:23.711Z,13.90
2022-09-26T16:09:19.870Z,13.50
2022-09-26T16:12:16.998Z,13.50
2022-09-26T16:15:05.083Z,13.10
2022-09-26T16:17:41.398Z,12.80
2022-09-26T16:20:28.628Z,12.70
2022-09-26T16:23:05.466Z,12.50
2022-09-26T16:28:18.267Z,12.30
2022-09-26T16:30:53.142Z,11.90
2022-09-26T16:33:30.643Z,11.80
2022-09-26T16:36:10.189Z,11.60
2022-09-26T16:38:37.438Z,11.40
2022-09-26T16:41:08.768Z,11.30
2022-09-26T16:43:37.672Z,11.00
2022-09-26T16:46:11.266Z,11.00
2022-09-26T16:48:50.381Z,10.80
2022-09-26T16:51:25.955Z,10.70
2022-09-26T16:54:00.778Z,10.60
2022-09-26T16:56:28.647Z,10.80
2022-09-26T16:58:59.135Z,10.60
2022-09-26T17:01:45.076Z,10.20
2022-09-26T17:04:25.047Z,10.20
2022-09-26T17:06:52.057Z,10.20
2022-09-26T17:09:24.394Z,10.30
2022-09-26T17:11:53.304Z,10.20
2022-09-26T17:14:39.522Z,10.10
2022-09-26T17:17:12.971Z,10.10
2022-09-26T17:19:41.255Z,10.10
2022-09-26T17:22:16.197Z,10.60
2022-09-26T17:24:44.334Z,10.20
2022-09-26T17:27:36.090Z,10.30
2022-09-26T17:30:05.519Z,10.00
2022-09-26T17:32:38.349Z,10.00
2022-09-26T17:35:16.919Z,10.00
2022-09-26T17:37:43.967Z,10.30
2022-09-26T17:40:18.978Z,10.10
2022-09-26T17:42:46.459Z,10.00
2022-09-26T17:45:13.401Z,10.10
2022-09-26T17:47:40.466Z,9.80
2022-09-26T17:50:16.864Z,9.80
2022-09-26T17:52:43.586Z,10.00
2022-09-26T17:55:12.238Z,10.00
2022-09-26T17:57:41.963Z,9.80
2022-09-26T18:00:11.711Z,10.40
2022-09-26T18:02:44.612Z,9.70
2022-09-26T18:05:20.048Z,9.70
2022-09-26T18:07:49.164Z,9.70
2022-09-26T18:10:25.183Z,9.70
2022-09-26T18:12:58.593Z,9.80
2022-09-26T18:15:27.184Z,9.70
2022-09-26T18:17:54.105Z,9.60
2022-09-26T18:20:23.741Z,9.10
2022-09-26T18:22:52.089Z,10.00
2022-09-26T18:25:22.897Z,9.70
2022-09-26T18:27:53.048Z,9.70
2022-09-26T18:30:21.432Z,9.00
2022-09-26T18:32:52.994Z,10.40
2022-09-26T18:35:31.140Z,9.80
2022-09-26T18:37:59.023Z,9.70
2022-09-26T18:40:28.911Z,9.60
2022-09-26T18:42:58.148Z,9.30
2022-09-26T18:45:28.950Z,9.60
2022-09-26T18:47:57.041Z,10.30
2022-09-26T18:50:44.104Z,9.30
2022-09-26T18:53:14.353Z,9.50
2022-09-26T18:56:00.260Z,9.90
2022-09-26T18:58:28.136Z,10.00
2022-09-26T19:00:59.684Z,9.40
2022-09-26T19:03:53.192Z,9.40
2022-09-26T19:06:23.222Z,9.40
2022-09-26T19:09:00.084Z,9.90
2022-09-26T19:11:29.161Z,9.40
2022-09-26T19:13:57.673Z,9.50
2022-09-26T19:16:25.125Z,9.40
2022-09-26T19:18:53.333Z,9.40
2022-09-26T19:21:31.729Z,9.70
2022-09-26T19:24:06.537Z,9.50
2022-09-26T19:26:40.742Z,9.50
2022-09-26T19:29:13.131Z,10.00
2022-09-26T19:31:41.917Z,9.20
2022-09-26T19:34:18.488Z,9.50
2022-09-26T19:36:47.262Z,9.90
2022-09-26T19:39:15.987Z,9.40
2022-09-26T19:41:43.320Z,9.30
2022-09-26T19:44:12.839Z,9.40
2022-09-26T19:46:40.807Z,8.60
2022-09-26T19:49:14.070Z,9.40
2022-09-26T19:51:41.286Z,9.30
2022-09-26T19:54:18.096Z,9.30
2022-09-26T19:56:46.644Z,9.30
2022-09-26T19:59:14.771Z,9.30
2022-09-26T20:01:48.767Z,9.20
2022-09-26T20:04:19.223Z,10.00
2022-09-26T20:06:47.663Z,9.20
2022-09-26T20:09:18.086Z,9.80
2022-09-26T20:11:45.241Z,9.30
2022-09-26T20:14:26.562Z,9.20
2022-09-26T20:17:18.390Z,9.10
2022-09-26T20:19:46.882Z,9.10
2022-09-26T20:22:20.681Z,9.10
2022-09-26T20:24:51.640Z,9.10
2022-09-26T20:27:28.047Z,9.60
2022-09-26T20:30:14.685Z,9.10
2022-09-26T20:32:44.370Z,9.10
2022-09-26T20:35:14.777Z,9.10
2022-09-26T20:37:42.752Z,9.40
2022-09-26T20:40:24.523Z,9.50
2022-09-26T20:43:04.038Z,9.50
2022-09-26T20:45:39.439Z,9.20
2022-09-26T20:48:08.866Z,9.00
2022-09-26T20:50:38.757Z,9.40
2022-09-26T20:53:18.230Z,9.50
2022-09-26T20:55:46.674Z,9.10
2022-09-26T20:58:17.521Z,9.00
2022-09-26T21:00:45.505Z,8.60
2022-09-26T21:03:15.658Z,8.80
2022-09-26T21:05:43.403Z,9.70
2022-09-26T21:08:23.720Z,9.30
2022-09-26T21:10:50.519Z,9.10
2022-09-26T21:13:18.535Z,9.40
2022-09-26T21:15:45.348Z,9.00
2022-09-26T21:18:22.670Z,9.30
2022-09-26T21:20:49.713Z,9.00
2022-09-26T21:23:18.097Z,9.00
2022-09-26T21:25:45.139Z,9.50
2022-09-26T21:28:26.967Z,9.60
2022-09-26T21:30:58.368Z,9.10
2022-09-26T21:33:25.514Z,9.30
2022-09-26T21:35:52.884Z,9.20
2022-09-26T21:38:21.660Z,9.10
2022-09-26T21:40:57.504Z,9.10
2022-09-26T21:43:29.385Z,9.50
2022-09-26T21:45:56.375Z,9.00
2022-09-26T21:48:23.422Z,9.10
2022-09-26T21:50:58.146Z,9.30
2022-09-26T21:53:39.196Z,10.20
2022-09-26T21:56:11.519Z,9.10
2022-09-26T21:58:40.768Z,9.50
2022-09-26T22:01:08.753Z,9.10
2022-09-26T22:03:36.971Z,9.20
2022-09-26T22:06:07.434Z,9.60
2022-09-26T22:08:34.760Z,9.70
2022-09-26T22:11:03.214Z,9.20
2022-09-26T22:13:31.505Z,9.20
2022-09-26T22:16:08.165Z,9.20
2022-09-26T22:18:35.896Z,9.20
2022-09-26T22:21:04.387Z,9.70
2022-09-26T22:23:32.957Z,9.30
2022-09-26T22:25:59.997Z,9.60
2022-09-26T22:28:27.579Z,9.40
2022-09-26T22:30:54.859Z,9.30
2022-09-26T22:33:22.859Z,9.30
2022-09-26T22:35:50.630Z,9.30
2022-09-26T22:38:18.377Z,8.80
2022-09-26T22:40:46.348Z,9.20
2022-09-26T22:43:13.234Z,10.00
2022-09-26T22:45:40.095Z,10.00
2022-09-26T22:48:06.968Z,9.40
2022-09-26T22:50:33.712Z,9.80
2022-09-26T22:53:00.497Z,9.90
2022-09-26T22:55:27.321Z,9.80
2022-09-26T22:57:54.190Z,9.30
2022-09-26T23:00:20.882Z,9.40
2022-09-26T23:02:47.638Z,9.40
2022-09-26T23:05:14.434Z,9.70
2022-09-26T23:07:41.183Z,9.40
2022-09-26T23:10:08.429Z,9.40
2022-09-26T23:12:35.118Z,9.40
2022-09-26T23:15:01.878Z,9.60
2022-09-26T23:17:29.017Z,10.00
2022-09-26T23:19:55.937Z,9.40
2022-09-26T23:22:22.629Z,9.50
2022-09-26T23:24:49.587Z,9.80
2022-09-26T23:27:16.287Z,9.20
2022-09-26T23:29:43.147Z,9.70
2022-09-26T23:32:10.171Z,9.70
2022-09-26T23:34:37.047Z,9.30
2022-09-26T23:37:11.188Z,9.60
2022-09-26T23:39:37.999Z,9.30
2022-09-26T23:42:22.904Z,9.50
2022-09-26T23:44:50.208Z,9.30
2022-09-26T23:47:17.033Z,9.60
2022-09-26T23:49:43.946Z,9.40
2022-09-26T23:52:10.890Z,9.00
2022-09-26T23:54:37.694Z,8.80
2022-09-26T23:57:06.943Z,9.50
2022-09-26T23:59:33.904Z,9.20
